Terminal Aerodrome Forecast
Issued by NWS

Home | Current Version | Previous Version | Text Only | Print | Product List | Glossary On
Versions: 1 2 3 4 5 6 7 8 9 10 11 12 13 14 15 16 17 18 19
000
FTUS42 KGSP 272320
TAFGMU
TAF
KGMU 272320Z 2800/2824 01007KT P6SM OVC060
      TEMPO 2800/2801 -SHRA
     FM280800 34007KT P6SM SCT240=

USA.gov is the U.S. government's official web portal to all federal, state and local government web resources and services.